Time;durP1;ratioP1;P1;durP2;ratioP2;P2;SDS_P1;SDS_P2;PMS_P1;PMS_P2;Temp;Humidity;BMP_temperature;BMP_pressure;BME280_temperature;BME280_humidity;BME280_pressure;Samples;Min_cycle;Max_cycle;Signal;HPM_P1;HPM_P2
2021/12/30 00:00:33;;;;;;;7.18;2.72;;;22.50;47.70;;;;;;5009999;28;20085;-59
2021/12/30 00:02:58;;;;;;;7.10;2.92;;;22.50;47.80;;;;;;5011534;28;20474;-59
2021/12/30 00:05:24;;;;;;;6.75;2.65;;;22.40;47.70;;;;;;5011969;28;20099;-60
2021/12/30 00:07:49;;;;;;;7.95;3.17;;;22.40;47.70;;;;;;5011499;28;20038;-59
2021/12/30 00:10:15;;;;;;;7.60;2.40;;;22.40;47.70;;;;;;5012178;28;20046;-60
2021/12/30 00:12:40;;;;;;;7.65;2.85;;;22.40;47.70;;;;;;5009906;28;27740;-61
2021/12/30 00:15:08;;;;;;;9.38;2.83;;;22.40;47.70;;;;;;5011875;28;20065;-60
2021/12/30 00:17:34;;;;;;;8.85;3.03;;;22.40;47.70;;;;;;5012053;28;20168;-59
2021/12/30 00:20:01;;;;;;;7.18;3.00;;;22.40;47.60;;;;;;5011151;28;20427;-60
2021/12/30 00:22:27;;;;;;;8.57;2.60;;;22.30;47.60;;;;;;5014056;28;20147;-60
2021/12/30 00:24:53;;;;;;;10.02;3.15;;;22.30;47.70;;;;;;5012919;28;20167;-59
2021/12/30 00:27:19;;;;;;;10.30;3.03;;;22.30;47.60;;;;;;5008748;28;29451;-59
2021/12/30 00:29:44;;;;;;;10.38;2.92;;;22.30;47.60;;;;;;5011067;28;20033;-60
2021/12/30 00:32:10;;;;;;;10.60;3.33;;;22.30;47.60;;;;;;5012171;28;20045;-59
2021/12/30 00:34:36;;;;;;;6.82;3.13;;;22.20;47.60;;;;;;5011102;28;20048;-60
2021/12/30 00:37:02;;;;;;;9.68;3.15;;;22.20;47.60;;;;;;5010502;28;20041;-59
2021/12/30 00:39:27;;;;;;;8.82;2.78;;;22.20;47.50;;;;;;5010677;28;20184;-60
2021/12/30 00:41:53;;;;;;;11.27;3.58;;;22.20;47.50;;;;;;5010916;28;20029;-61
2021/12/30 00:44:18;;;;;;;7.70;3.15;;;22.20;47.50;;;;;;5009901;28;20045;-59
2021/12/30 00:46:44;;;;;;;8.20;3.13;;;22.20;47.50;;;;;;5011416;28;20049;-59
2021/12/30 00:49:10;;;;;;;8.82;2.80;;;22.10;47.60;;;;;;5011951;28;20517;-60
2021/12/30 00:51:36;;;;;;;8.80;2.90;;;22.10;47.80;;;;;;5011586;28;20682;-59
2021/12/30 00:54:02;;;;;;;7.70;3.22;;;22.10;47.80;;;;;;5007529;28;27467;-59
2021/12/30 00:56:27;;;;;;;10.30;3.38;;;22.20;47.90;;;;;;5014305;28;20532;-59
2021/12/30 00:58:53;;;;;;;9.63;3.25;;;22.10;48.60;;;;;;5006801;28;20041;-59
2021/12/30 01:01:19;;;;;;;8.57;2.90;;;22.10;47.90;;;;;;5012211;28;20033;-61
2021/12/30 01:03:45;;;;;;;10.18;3.30;;;22.10;47.90;;;;;;5008075;28;20041;-59
2021/12/30 01:06:11;;;;;;;10.38;3.28;;;22.10;48.00;;;;;;5012630;28;20503;-59
2021/12/30 01:08:36;;;;;;;10.07;3.45;;;22.10;48.00;;;;;;5008010;28;20049;-58
2021/12/30 01:11:07;;;;;;;8.75;3.15;;;22.10;48.00;;;;;;5011023;28;20116;-59
2021/12/30 01:13:38;;;;;;;9.20;3.30;;;22.10;48.00;;;;;;5008085;28;20044;-60
2021/12/30 01:16:06;;;;;;;9.07;3.25;;;22.00;47.90;;;;;;5010330;28;20037;-59
2021/12/30 01:21:10;;;;;;;9.27;3.30;;;22.00;47.90;;;;;;5011740;28;20049;-58
2021/12/30 01:23:36;;;;;;;11.10;3.60;;;22.00;48.00;;;;;;5006889;28;29159;-61
2021/12/30 01:26:02;;;;;;;8.15;3.40;;;22.00;47.90;;;;;;5007166;28;20120;-61
2021/12/30 01:28:28;;;;;;;10.50;3.42;;;21.90;47.90;;;;;;5007662;28;20053;-61
2021/12/30 01:30:55;;;;;;;9.60;3.25;;;22.00;48.00;;;;;;5010467;28;20033;-58
2021/12/30 01:33:21;;;;;;;8.15;3.22;;;21.90;47.90;;;;;;5009562;28;20232;-60
2021/12/30 01:35:46;;;;;;;10.48;3.33;;;22.00;48.10;;;;;;5013640;28;20612;-61
2021/12/30 01:38:15;;;;;;;11.40;3.70;;;21.90;47.90;;;;;;5007435;28;25484;-58
2021/12/30 01:40:42;;;;;;;9.10;3.33;;;21.90;47.90;;;;;;5011689;28;20049;-59
2021/12/30 01:43:10;;;;;;;8.75;3.38;;;21.90;47.90;;;;;;5008940;28;20072;-60
2021/12/30 01:45:36;;;;;;;11.57;3.42;;;21.90;47.90;;;;;;5009901;28;20117;-60
2021/12/30 01:48:01;;;;;;;10.45;3.20;;;21.90;47.90;;;;;;5009170;28;20049;-59
2021/12/30 01:50:27;;;;;;;9.60;3.17;;;21.80;47.90;;;;;;5011711;28;23711;-60
2021/12/30 01:52:53;;;;;;;9.23;3.30;;;21.80;47.90;;;;;;5011803;28;20629;-59
2021/12/30 01:55:20;;;;;;;7.90;3.30;;;21.80;47.90;;;;;;5010569;28;20041;-58
2021/12/30 01:57:47;;;;;;;9.55;3.60;;;21.80;47.90;;;;;;5010964;28;20057;-60
2021/12/30 02:00:17;;;;;;;9.07;3.83;;;21.80;48.00;;;;;;5008959;28;20381;-60
2021/12/30 02:02:43;;;;;;;9.57;2.83;;;21.80;48.00;;;;;;5012469;28;20468;-58
2021/12/30 02:05:10;;;;;;;12.10;3.67;;;21.80;48.00;;;;;;5009744;28;20417;-58
2021/12/30 02:07:36;;;;;;;8.23;3.38;;;21.80;48.00;;;;;;5012313;28;20088;-59
2021/12/30 02:10:02;;;;;;;10.13;3.92;;;21.70;48.00;;;;;;5009572;28;20092;-60
2021/12/30 02:12:36;;;;;;;11.82;4.22;;;21.80;48.00;;;;;;5011754;28;20034;-59
2021/12/30 02:15:04;;;;;;;10.68;3.53;;;21.70;48.00;;;;;;5009256;28;20131;-61
2021/12/30 02:17:29;;;;;;;11.65;3.60;;;21.70;48.10;;;;;;5015411;28;20110;-60
2021/12/30 02:20:04;;;;;;;8.75;3.50;;;21.70;48.10;;;;;;5008367;28;25597;-60
2021/12/30 02:22:30;;;;;;;9.50;3.55;;;21.70;48.10;;;;;;5009959;28;20045;-59
2021/12/30 02:24:57;;;;;;;10.38;3.28;;;21.70;48.10;;;;;;5010043;28;20038;-61
2021/12/30 02:27:23;;;;;;;10.50;3.60;;;21.70;48.20;;;;;;5007718;28;21510;-60
2021/12/30 02:29:49;;;;;;;9.32;3.30;;;21.70;48.20;;;;;;5011842;28;20044;-60
2021/12/30 02:32:15;;;;;;;10.55;3.60;;;21.60;48.90;;;;;;5005914;28;20034;-61
2021/12/30 02:34:41;;;;;;;11.85;3.70;;;21.70;48.20;;;;;;5011308;28;20091;-59
2021/12/30 02:37:07;;;;;;;8.93;3.08;;;21.60;48.20;;;;;;5009781;28;20042;-61
2021/12/30 02:39:33;;;;;;;11.50;4.35;;;21.60;48.20;;;;;;5010950;28;20049;-59
2021/12/30 02:41:59;;;;;;;10.15;3.58;;;21.60;48.20;;;;;;5044047;28;20034;-59
2021/12/30 02:44:25;;;;;;;9.48;3.83;;;21.60;48.20;;;;;;5013688;28;20063;-59
2021/12/30 02:46:51;;;;;;;8.27;3.47;;;21.60;48.20;;;;;;5011299;28;25979;-59
2021/12/30 02:49:17;;;;;;;9.05;3.67;;;21.60;48.20;;;;;;5014243;28;20038;-60
2021/12/30 02:51:43;;;;;;;13.32;3.97;;;21.60;48.30;;;;;;5012468;28;20505;-60
2021/12/30 02:54:08;;;;;;;8.95;3.13;;;21.60;48.30;;;;;;5012721;28;20099;-59
2021/12/30 02:56:34;;;;;;;12.35;3.65;;;21.60;48.30;;;;;;5015378;28;20041;-58
2021/12/30 02:59:00;;;;;;;9.52;3.55;;;21.50;48.20;;;;;;5012881;28;20048;-59
2021/12/30 03:01:28;;;;;;;8.88;4.28;;;21.60;48.40;;;;;;5005018;28;20037;-59
2021/12/30 03:03:54;;;;;;;6.50;2.80;;;21.50;48.30;;;;;;5008736;28;20073;-59
2021/12/30 03:06:21;;;;;;;10.68;3.67;;;21.50;48.40;;;;;;5008765;28;20042;-59
2021/12/30 03:08:48;;;;;;;8.98;3.50;;;21.50;48.40;;;;;;5013367;28;20077;-60
2021/12/30 03:11:15;;;;;;;7.30;3.25;;;21.50;48.40;;;;;;5012121;28;20026;-59
2021/12/30 03:13:43;;;;;;;9.40;3.33;;;21.50;48.50;;;;;;5012725;28;20045;-59
2021/12/30 03:16:15;;;;;;;11.52;3.92;;;21.50;48.40;;;;;;5010818;28;20049;-59
2021/12/30 03:18:44;;;;;;;9.93;3.90;;;21.50;48.50;;;;;;5012613;28;20417;-60
2021/12/30 03:21:12;;;;;;;10.15;3.65;;;21.50;48.60;;;;;;5008499;28;20073;-59
2021/12/30 03:23:38;;;;;;;9.45;3.92;;;21.50;48.60;;;;;;5012049;28;20056;-58
2021/12/30 03:26:05;;;;;;;12.13;3.63;;;21.50;48.50;;;;;;5011569;28;20078;-60
2021/12/30 03:28:31;;;;;;;10.85;3.88;;;21.50;48.60;;;;;;5012333;28;20038;-59
2021/12/30 03:30:58;;;;;;;7.55;3.13;;;21.50;48.60;;;;;;5011378;28;20042;-60
2021/12/30 03:33:25;;;;;;;9.35;3.33;;;21.40;48.60;;;;;;5011178;28;20048;-58
2021/12/30 03:35:51;;;;;;;8.02;3.45;;;21.40;48.60;;;;;;5010702;28;20048;-61
2021/12/30 03:38:16;;;;;;;11.18;3.78;;;21.40;48.60;;;;;;5012540;28;20492;-61
2021/12/30 03:40:42;;;;;;;10.65;3.63;;;21.40;48.70;;;;;;5011962;28;20493;-60
2021/12/30 03:43:08;;;;;;;9.05;3.72;;;21.40;48.70;;;;;;5014000;28;20037;-59
2021/12/30 03:45:33;;;;;;;9.68;3.50;;;21.40;48.70;;;;;;5012276;28;20029;-60
2021/12/30 03:47:59;;;;;;;7.85;3.45;;;21.40;48.70;;;;;;5015927;28;20469;-60
2021/12/30 03:50:27;;;;;;;10.45;3.85;;;21.40;48.70;;;;;;5011239;28;20030;-59
2021/12/30 03:52:57;;;;;;;10.52;3.97;;;21.40;48.80;;;;;;5011675;28;20233;-59
2021/12/30 03:55:24;;;;;;;13.98;3.95;;;21.40;48.90;;;;;;5012689;28;20038;-61
2021/12/30 03:57:51;;;;;;;10.77;4.07;;;21.40;48.90;;;;;;5011472;28;20527;-60
2021/12/30 04:00:17;;;;;;;9.85;3.83;;;21.30;48.90;;;;;;5009685;28;20045;-60
2021/12/30 04:02:43;;;;;;;10.70;3.90;;;21.40;48.90;;;;;;5015088;28;20177;-61
2021/12/30 04:05:09;;;;;;;9.23;4.15;;;21.40;49.00;;;;;;5010295;28;20061;-59
2021/12/30 04:07:35;;;;;;;9.07;3.25;;;21.30;48.90;;;;;;5012573;28;20155;-59
2021/12/30 04:10:02;;;;;;;10.05;3.45;;;21.30;49.00;;;;;;5010261;28;21389;-59
2021/12/30 04:12:28;;;;;;;8.82;3.60;;;21.30;49.00;;;;;;5012853;28;29198;-59
2021/12/30 04:14:53;;;;;;;9.55;3.35;;;21.30;49.10;;;;;;5010605;28;20127;-59
2021/12/30 04:17:19;;;;;;;9.50;3.30;;;21.30;49.00;;;;;;5007667;28;20438;-61
2021/12/30 04:19:44;;;;;;;9.35;4.07;;;21.30;49.10;;;;;;5010791;28;20063;-60
2021/12/30 04:22:14;;;;;;;9.25;3.45;;;21.30;49.10;;;;;;5012865;28;20493;-58
2021/12/30 04:24:39;;;;;;;9.48;3.35;;;21.30;49.10;;;;;;5008187;28;20042;-59
2021/12/30 04:27:05;;;;;;;6.60;2.95;;;21.30;49.20;;;;;;5012741;28;20040;-59
2021/12/30 04:29:30;;;;;;;9.32;3.55;;;21.30;49.20;;;;;;5012088;28;20766;-59
2021/12/30 04:31:57;;;;;;;8.55;2.95;;;21.30;49.20;;;;;;5012891;28;20472;-60
2021/12/30 04:34:22;;;;;;;9.00;3.40;;;21.30;49.30;;;;;;5009430;28;20046;-59
2021/12/30 04:36:48;;;;;;;9.13;3.22;;;21.30;49.30;;;;;;5009741;28;20434;-60
2021/12/30 04:39:14;;;;;;;10.50;3.60;;;21.30;49.30;;;;;;5011577;28;20037;-58
2021/12/30 04:41:40;;;;;;;10.63;3.40;;;21.30;49.40;;;;;;5009668;28;25490;-59
2021/12/30 04:44:05;;;;;;;6.80;3.15;;;21.30;49.40;;;;;;5013268;28;20037;-60
2021/12/30 04:46:33;;;;;;;7.20;3.13;;;21.20;49.30;;;;;;5008596;28;20033;-59
2021/12/30 04:48:58;;;;;;;7.13;3.03;;;21.20;49.30;;;;;;5011644;28;20436;-60
2021/12/30 04:51:24;;;;;;;7.13;2.78;;;21.20;49.40;;;;;;5012659;28;21098;-59
2021/12/30 04:53:49;;;;;;;11.30;3.65;;;21.20;49.40;;;;;;5009503;28;20521;-59
2021/12/30 04:56:15;;;;;;;10.70;2.65;;;21.20;49.40;;;;;;5007891;28;25960;-59
2021/12/30 04:58:41;;;;;;;7.32;3.15;;;21.30;49.50;;;;;;5011601;28;20048;-61
2021/12/30 05:01:06;;;;;;;6.70;2.80;;;21.20;49.40;;;;;;5005204;28;20089;-61
2021/12/30 05:03:32;;;;;;;6.45;2.88;;;21.20;49.40;;;;;;5006633;28;20042;-59
2021/12/30 05:05:58;;;;;;;8.73;2.58;;;21.20;49.50;;;;;;5007224;28;20049;-60
2021/12/30 05:08:25;;;;;;;7.20;2.72;;;21.20;49.60;;;;;;5009899;28;20114;-60
2021/12/30 05:10:52;;;;;;;6.97;2.58;;;21.20;49.50;;;;;;5012830;28;20095;-58
2021/12/30 05:13:18;;;;;;;7.18;3.03;;;21.20;49.60;;;;;;5010355;28;20147;-59
2021/12/30 05:15:46;;;;;;;6.25;2.85;;;21.20;49.60;;;;;;5010997;28;20132;-59
2021/12/30 05:18:13;;;;;;;6.72;3.00;;;21.20;49.60;;;;;;5007966;28;20096;-58
2021/12/30 05:20:39;;;;;;;4.90;2.58;;;21.20;49.60;;;;;;5009930;28;20049;-59
2021/12/30 05:23:06;;;;;;;6.82;3.08;;;21.20;49.70;;;;;;5007851;28;21731;-61
2021/12/30 05:25:32;;;;;;;5.68;2.67;;;21.20;49.70;;;;;;5009859;28;20120;-59
2021/12/30 05:27:58;;;;;;;6.95;2.85;;;21.20;49.70;;;;;;5008297;28;20184;-59
2021/12/30 05:30:25;;;;;;;7.22;2.45;;;21.20;49.70;;;;;;5009645;28;20041;-60
2021/12/30 05:32:53;;;;;;;6.78;2.42;;;21.20;49.80;;;;;;5011757;28;20116;-59
2021/12/30 05:35:19;;;;;;;3.50;2.10;;;21.20;49.70;;;;;;5008310;28;20045;-60
2021/12/30 05:37:45;;;;;;;4.93;2.55;;;21.10;49.70;;;;;;5010640;28;20436;-60
2021/12/30 05:40:16;;;;;;;7.05;2.80;;;21.10;49.90;;;;;;5009391;28;20034;-58
2021/12/30 05:42:42;;;;;;;4.97;2.55;;;21.10;49.90;;;;;;5010331;28;20053;-58
2021/12/30 05:45:09;;;;;;;5.13;2.67;;;21.10;49.90;;;;;;5009443;28;20104;-58
2021/12/30 05:47:35;;;;;;;4.60;2.40;;;21.10;50.00;;;;;;5008631;28;20474;-57
2021/12/30 05:50:03;;;;;;;4.65;2.60;;;21.10;50.20;;;;;;5008217;28;20045;-59
2021/12/30 05:52:29;;;;;;;6.20;2.65;;;21.10;50.10;;;;;;5008487;28;20060;-59
2021/12/30 05:54:55;;;;;;;4.80;2.20;;;21.10;50.20;;;;;;5010779;28;20049;-59
2021/12/30 05:57:20;;;;;;;4.07;2.40;;;21.10;50.20;;;;;;5010846;28;20037;-60
2021/12/30 05:59:46;;;;;;;5.38;2.50;;;21.10;50.10;;;;;;5009900;28;20598;-59
2021/12/30 06:02:11;;;;;;;5.53;2.55;;;21.10;50.20;;;;;;5008270;28;20029;-59
2021/12/30 06:04:37;;;;;;;4.50;2.58;;;21.10;50.30;;;;;;5009471;28;20133;-59
2021/12/30 06:07:03;;;;;;;4.20;2.55;;;21.10;50.50;;;;;;5006168;28;29506;-59
2021/12/30 06:09:28;;;;;;;5.82;2.47;;;21.10;50.50;;;;;;5008997;28;20045;-59
2021/12/30 06:11:54;;;;;;;4.57;2.80;;;21.10;50.60;;;;;;5008896;28;20038;-59
2021/12/30 06:14:20;;;;;;;7.00;2.80;;;21.10;50.70;;;;;;5007381;28;20042;-58
2021/12/30 06:16:45;;;;;;;4.57;2.33;;;21.10;50.80;;;;;;5012752;28;20064;-58
2021/12/30 06:19:11;;;;;;;3.53;2.40;;;21.10;50.80;;;;;;5013637;28;25535;-60
2021/12/30 06:21:36;;;;;;;4.85;2.58;;;21.10;50.80;;;;;;5013570;28;20045;-59
2021/12/30 06:24:02;;;;;;;4.05;2.50;;;21.10;50.90;;;;;;5012602;28;20385;-58
2021/12/30 06:26:28;;;;;;;4.30;2.38;;;21.10;50.80;;;;;;5012309;28;20041;-60
2021/12/30 06:28:53;;;;;;;4.10;2.47;;;21.10;50.90;;;;;;5012390;28;20038;-59
2021/12/30 06:31:19;;;;;;;4.95;2.72;;;21.10;51.00;;;;;;5013062;28;20045;-59
2021/12/30 06:33:45;;;;;;;5.40;2.45;;;21.10;50.90;;;;;;5010899;28;21664;-59
2021/12/30 06:36:11;;;;;;;5.00;2.63;;;21.10;50.90;;;;;;5012028;28;20159;-59
2021/12/30 06:38:37;;;;;;;3.95;2.13;;;21.10;50.90;;;;;;5014177;28;20708;-59
2021/12/30 06:41:03;;;;;;;3.90;2.17;;;21.10;50.90;;;;;;5013637;28;20041;-60
2021/12/30 06:43:29;;;;;;;4.30;2.45;;;21.10;50.80;;;;;;5013372;28;20052;-58
2021/12/30 06:45:54;;;;;;;3.47;2.22;;;21.10;50.80;;;;;;5010844;28;20041;-60
2021/12/30 06:48:20;;;;;;;4.15;2.13;;;21.20;50.80;;;;;;5011109;28;20037;-60
2021/12/30 06:50:51;;;;;;;4.55;2.25;;;21.20;50.80;;;;;;5013395;28;20041;-58
2021/12/30 06:53:21;;;;;;;3.83;2.35;;;21.20;50.80;;;;;;5011868;28;20046;-59
2021/12/30 06:55:49;;;;;;;2.60;1.90;;;21.20;50.90;;;;;;5015816;28;20136;-58
2021/12/30 06:58:14;;;;;;;3.25;1.60;;;21.20;50.90;;;;;;5011981;28;20042;-59
2021/12/30 07:00:40;;;;;;;3.35;1.90;;;21.20;51.00;;;;;;5015878;28;20052;-58
2021/12/30 07:03:06;;;;;;;2.65;1.75;;;21.10;51.00;;;;;;5011824;28;20064;-59
2021/12/30 07:05:33;;;;;;;2.85;1.58;;;21.20;51.00;;;;;;5014897;28;20124;-59
2021/12/30 07:07:59;;;;;;;3.17;1.58;;;21.20;51.10;;;;;;5013748;28;20063;-59
2021/12/30 07:10:24;;;;;;;6.00;1.85;;;21.20;51.00;;;;;;5013096;28;20129;-59
2021/12/30 07:12:50;;;;;;;1.90;1.13;;;21.20;51.10;;;;;;5014456;28;20049;-58
2021/12/30 07:15:16;;;;;;;2.67;1.38;;;21.20;51.10;;;;;;5012109;28;20045;-58
2021/12/30 07:17:41;;;;;;;2.00;1.42;;;21.30;51.30;;;;;;5012410;28;20093;-59
2021/12/30 07:20:08;;;;;;;2.78;1.48;;;21.20;51.10;;;;;;5013896;28;20046;-59
2021/12/30 07:22:34;;;;;;;2.25;1.33;;;21.20;51.20;;;;;;5013428;28;20041;-58
2021/12/30 07:25:00;;;;;;;3.05;1.08;;;21.30;51.30;;;;;;5046151;28;20394;-59
2021/12/30 07:27:26;;;;;;;1.88;1.20;;;21.30;51.20;;;;;;5012917;28;20037;-58
2021/12/30 07:29:52;;;;;;;3.45;1.20;;;21.30;51.30;;;;;;5010680;28;23714;-58
2021/12/30 07:32:18;;;;;;;2.65;1.10;;;21.30;51.30;;;;;;5011669;28;20045;-58
2021/12/30 07:34:43;;;;;;;1.65;1.10;;;21.30;51.20;;;;;;5012257;28;20481;-60
2021/12/30 07:37:10;;;;;;;2.70;0.90;;;21.30;51.30;;;;;;5014008;28;20091;-57
2021/12/30 07:39:35;;;;;;;4.50;1.33;;;21.30;51.30;;;;;;5015158;28;20080;-58
2021/12/30 07:42:01;;;;;;;4.20;0.90;;;21.30;51.50;;;;;;5013474;28;20810;-58
2021/12/30 07:44:26;;;;;;;2.30;1.10;;;21.30;51.60;;;;;;5042450;28;27715;-59
2021/12/30 07:46:52;;;;;;;2.70;1.30;;;21.30;51.70;;;;;;5015412;28;20037;-59
2021/12/30 07:49:17;;;;;;;2.10;0.73;;;21.40;51.90;;;;;;5012709;28;20037;-58
2021/12/30 07:51:43;;;;;;;0.80;0.80;;;21.40;51.90;;;;;;5013078;28;20087;-58
2021/12/30 07:54:08;;;;;;;2.22;0.90;;;21.40;52.20;;;;;;5014662;28;20887;-58
2021/12/30 07:56:34;;;;;;;2.47;0.90;;;21.40;52.30;;;;;;5015174;28;20157;-58
2021/12/30 07:58:59;;;;;;;3.47;1.10;;;21.40;52.30;;;;;;5007688;28;20046;-58
2021/12/30 08:01:25;;;;;;;1.38;0.80;;;21.50;52.20;;;;;;5011953;28;20536;-59
2021/12/30 08:03:51;;;;;;;2.28;0.75;;;21.50;52.30;;;;;;5013609;28;20708;-58
2021/12/30 08:06:16;;;;;;;3.35;0.90;;;21.50;52.30;;;;;;5010773;28;20060;-59
2021/12/30 08:08:42;;;;;;;2.85;1.00;;;21.50;52.20;;;;;;5014005;28;20139;-58
2021/12/30 08:11:08;;;;;;;4.10;1.10;;;21.50;52.30;;;;;;5012971;28;20068;-60
2021/12/30 08:13:33;;;;;;;2.55;1.05;;;21.50;52.30;;;;;;5008933;28;20104;-60
2021/12/30 08:15:59;;;;;;;2.28;1.02;;;21.50;52.40;;;;;;5014152;28;20073;-58
2021/12/30 08:18:24;;;;;;;1.00;0.90;;;21.50;52.30;;;;;;5009302;28;20045;-58
2021/12/30 08:20:52;;;;;;;1.75;0.80;;;21.50;52.40;;;;;;5013735;28;20061;-58
2021/12/30 08:23:17;;;;;;;1.50;0.90;;;21.50;52.50;;;;;;5010504;28;20075;-58
2021/12/30 08:25:49;;;;;;;2.63;0.82;;;21.50;52.60;;;;;;5010587;28;20493;-58
2021/12/30 08:28:15;;;;;;;1.20;1.00;;;21.50;52.60;;;;;;5007255;28;20030;-59
2021/12/30 08:30:41;;;;;;;3.65;1.23;;;21.50;52.70;;;;;;5013844;28;20042;-59
2021/12/30 08:33:06;;;;;;;1.25;1.00;;;21.50;52.90;;;;;;5012816;28;20045;-58
2021/12/30 08:35:32;;;;;;;1.52;1.05;;;21.50;52.90;;;;;;5010321;28;20602;-58
2021/12/30 08:37:57;;;;;;;1.77;1.00;;;21.50;52.90;;;;;;5009830;28;20092;-59
2021/12/30 08:40:23;;;;;;;1.75;1.10;;;21.50;52.80;;;;;;5009847;28;20050;-58
2021/12/30 08:42:49;;;;;;;1.42;0.98;;;21.50;52.80;;;;;;5011859;28;20045;-57
2021/12/30 08:45:14;;;;;;;2.47;0.90;;;21.60;53.10;;;;;;5012574;28;20056;-57
2021/12/30 08:47:41;;;;;;;1.40;0.90;;;21.60;53.10;;;;;;5009805;28;20623;-57
2021/12/30 08:50:09;;;;;;;1.50;0.80;;;21.60;53.10;;;;;;5012512;28;20534;-57
2021/12/30 08:52:35;;;;;;;2.13;1.50;;;21.60;53.10;;;;;;5009495;28;20493;-58
2021/12/30 08:55:04;;;;;;;2.22;1.10;;;21.60;53.10;;;;;;5009607;28;25148;-60
2021/12/30 08:57:29;;;;;;;1.42;1.05;;;21.60;53.20;;;;;;5010269;28;20088;-58
2021/12/30 08:59:55;;;;;;;3.22;1.20;;;21.60;53.20;;;;;;5010216;28;20045;-59
2021/12/30 09:02:20;;;;;;;2.05;1.10;;;21.60;53.10;;;;;;5013998;28;20045;-58
2021/12/30 09:04:46;;;;;;;2.25;1.23;;;21.60;53.20;;;;;;5008356;28;20580;-59
2021/12/30 09:07:15;;;;;;;1.30;0.98;;;21.60;53.20;;;;;;5008975;28;20060;-57
2021/12/30 09:09:41;;;;;;;2.10;1.38;;;21.60;53.30;;;;;;5008165;28;20041;-60
2021/12/30 09:12:07;;;;;;;1.48;1.00;;;21.60;53.50;;;;;;5009592;28;20070;-60
2021/12/30 09:14:33;;;;;;;1.85;0.95;;;21.60;53.60;;;;;;5011610;28;20111;-57
2021/12/30 09:16:59;;;;;;;3.05;1.50;;;21.60;53.60;;;;;;5008660;28;20057;-60
2021/12/30 09:19:24;;;;;;;3.03;1.30;;;21.70;53.90;;;;;;5009008;28;20818;-57
2021/12/30 09:21:50;;;;;;;1.58;1.30;;;21.60;54.00;;;;;;5011365;28;20045;-57
2021/12/30 09:24:16;;;;;;;2.70;1.48;;;21.60;54.00;;;;;;5008648;28;20091;-59
2021/12/30 09:26:41;;;;;;;2.50;1.20;;;21.70;54.20;;;;;;5010184;28;20056;-58
2021/12/30 09:29:10;;;;;;;3.50;1.40;;;21.70;54.40;;;;;;5008002;28;20474;-57
2021/12/30 09:31:54;;;;;;;2.33;1.30;;;21.70;54.80;;;;;;5009745;28;20029;-57
2021/12/30 09:34:20;;;;;;;1.65;1.40;;;21.70;54.80;;;;;;5008652;28;20073;-58
2021/12/30 09:36:47;;;;;;;2.92;1.33;;;21.70;54.80;;;;;;5007601;28;29454;-58
2021/12/30 09:39:13;;;;;;;3.30;1.30;;;21.70;55.00;;;;;;5010761;28;20046;-58
2021/12/30 09:41:43;;;;;;;2.78;1.33;;;21.70;55.00;;;;;;5007966;28;20056;-58
2021/12/30 09:44:10;;;;;;;3.10;1.10;;;21.70;55.00;;;;;;5010092;28;20046;-58
2021/12/30 09:46:36;;;;;;;2.80;1.63;;;21.70;55.30;;;;;;5007915;28;20048;-57
2021/12/30 09:49:08;;;;;;;3.22;1.38;;;21.70;55.80;;;;;;5011007;28;20037;-58
2021/12/30 09:51:36;;;;;;;3.75;1.50;;;21.70;55.90;;;;;;5014554;28;20034;-58
2021/12/30 09:54:03;;;;;;;2.72;1.20;;;21.70;55.70;;;;;;5014693;28;20122;-60
2021/12/30 09:56:29;;;;;;;1.67;1.02;;;21.80;55.60;;;;;;5017613;28;20137;-60
2021/12/30 09:58:55;;;;;;;2.15;1.35;;;21.80;55.50;;;;;;5012905;28;20041;-59
2021/12/30 10:01:20;;;;;;;3.42;1.40;;;21.80;55.50;;;;;;4997574;28;20107;-58
2021/12/30 10:03:46;;;;;;;4.43;1.40;;;21.80;55.50;;;;;;5013327;28;30205;-59
2021/12/30 10:06:15;;;;;;;3.30;1.42;;;21.80;55.50;;;;;;5015003;28;20042;-58
2021/12/30 10:09:09;;;;;;;2.75;1.30;;;21.80;55.70;;;;;;5016123;28;20149;-58
2021/12/30 10:11:51;;;;;;;2.45;1.35;;;21.80;55.80;;;;;;5014392;28;20501;-58
2021/12/30 10:14:37;;;;;;;4.15;1.45;;;21.80;55.70;;;;;;5016722;28;20045;-57
2021/12/30 10:17:27;;;;;;;2.58;1.40;;;21.80;55.60;;;;;;5047966;28;20061;-57
2021/12/30 10:19:54;;;;;;;4.03;1.57;;;21.80;55.60;;;;;;5012566;28;30527;-58
2021/12/30 10:22:23;;;;;;;3.67;1.45;;;21.80;55.60;;;;;;5015423;28;20048;-59
2021/12/30 10:24:50;;;;;;;3.47;1.30;;;21.80;55.40;;;;;;5016022;28;20038;-58
2021/12/30 10:27:23;;;;;;;4.85;1.95;;;21.80;55.50;;;;;;5014558;28;20145;-59
2021/12/30 10:29:49;;;;;;;4.38;1.52;;;21.80;55.50;;;;;;5017053;28;20037;-59
2021/12/30 10:32:21;;;;;;;4.05;1.40;;;21.80;55.40;;;;;;5011757;28;33994;-58
2021/12/30 10:35:07;;;;;;;3.83;1.65;;;21.80;55.40;;;;;;5014023;28;20048;-59
2021/12/30 10:37:34;;;;;;;3.00;1.67;;;21.80;55.30;;;;;;5016913;28;20064;-57
2021/12/30 10:40:01;;;;;;;3.83;1.63;;;21.80;55.30;;;;;;5013563;28;20068;-60
2021/12/30 10:42:30;;;;;;;3.05;1.40;;;21.80;55.40;;;;;;5017282;28;20083;-60
2021/12/30 10:45:04;;;;;;;4.93;1.63;;;21.80;55.30;;;;;;5013839;28;20049;-58
2021/12/30 10:47:49;;;;;;;3.10;1.60;;;21.80;55.20;;;;;;5013647;28;22196;-58
2021/12/30 10:50:15;;;;;;;7.20;2.00;;;21.80;55.10;;;;;;5017535;28;20052;-55
2021/12/30 10:52:49;;;;;;;7.18;2.20;;;21.80;55.30;;;;;;5013288;28;20045;-57
2021/12/30 10:55:15;;;;;;;5.05;2.30;;;21.80;55.30;;;;;;5017290;28;20096;-61
2021/12/30 10:57:41;;;;;;;4.72;1.88;;;21.70;55.10;;;;;;5017204;28;20752;-56
2021/12/30 11:00:08;;;;;;;6.50;1.90;;;21.70;55.10;;;;;;5015324;28;30047;-58
2021/12/30 11:02:35;;;;;;;3.28;1.65;;;21.70;55.00;;;;;;5015084;28;20409;-58
2021/12/30 11:05:10;;;;;;;4.97;2.20;;;21.70;55.00;;;;;;5012691;28;20059;-58
2021/12/30 11:07:47;;;;;;;5.90;1.90;;;21.70;55.00;;;;;;5015221;28;20039;-59
2021/12/30 11:10:15;;;;;;;5.30;1.92;;;21.70;54.90;;;;;;5018595;28;20385;-62
2021/12/30 11:12:46;;;;;;;5.53;2.20;;;21.70;54.70;;;;;;5013425;28;20069;-62
2021/12/30 11:15:22;;;;;;;;;;;21.70;54.80;;;;;;5013052;28;27205;-59
2021/12/30 11:17:48;;;;;;;6.15;2.13;;;21.70;54.60;;;;;;5011478;28;20576;-60
2021/12/30 11:20:19;;;;;;;4.75;1.98;;;21.70;54.80;;;;;;5014665;28;20402;-61
2021/12/30 11:22:47;;;;;;;6.65;2.53;;;21.70;54.60;;;;;;5011718;28;20046;-60
2021/12/30 11:25:16;;;;;;;6.55;2.75;;;21.70;54.50;;;;;;5014739;28;20398;-58
2021/12/30 11:27:41;;;;;;;6.97;2.38;;;21.70;55.20;;;;;;5013284;28;20050;-57
2021/12/30 11:30:13;;;;;;;6.13;2.80;;;21.70;54.40;;;;;;5011483;28;20394;-58
2021/12/30 11:32:41;;;;;;;8.45;2.88;;;21.70;54.30;;;;;;5015683;28;20390;-60
2021/12/30 11:35:08;;;;;;;7.05;2.65;;;21.70;54.40;;;;;;5009808;28;20528;-57
2021/12/30 11:37:34;;;;;;;9.32;2.95;;;21.60;54.30;;;;;;5014463;28;20076;-58
2021/12/30 11:40:05;;;;;;;8.85;2.88;;;21.70;54.40;;;;;;5012906;28;20527;-58
2021/12/30 11:42:41;;;;;;;;;;;21.60;54.40;;;;;;5012681;28;20163;-57
2021/12/30 11:45:28;;;;;;;7.25;2.70;;;21.60;54.30;;;;;;5017548;28;19925;-58
2021/12/30 11:47:58;;;;;;;9.98;3.58;;;21.60;54.40;;;;;;5011632;28;20140;-58
2021/12/30 11:50:26;;;;;;;11.02;3.20;;;21.60;54.50;;;;;;5013430;28;20148;-59
2021/12/30 11:53:06;;;;;;;9.70;3.03;;;21.60;54.70;;;;;;5013565;28;20087;-58
2021/12/30 11:55:44;;;;;;;7.57;3.15;;;21.60;54.70;;;;;;5012012;28;20037;-58
2021/12/30 11:58:32;;;;;;;9.35;3.28;;;21.60;54.90;;;;;;5010458;28;27516;-58
2021/12/30 12:01:03;;;;;;;9.15;3.72;;;21.60;55.00;;;;;;5012395;28;20069;-59
2021/12/30 12:03:42;;;;;;;10.25;2.95;;;21.60;55.00;;;;;;5014532;28;20149;-58
2021/12/30 12:06:36;;;;;;;8.52;3.00;;;21.60;55.00;;;;;;5015963;28;20075;-58
2021/12/30 12:09:08;;;;;;;8.73;2.90;;;21.60;55.00;;;;;;5009623;28;20107;-57
2021/12/30 12:12:17;;;;;;;10.20;3.03;;;21.60;55.00;;;;;;5010588;28;23394;-57
2021/12/30 12:14:45;;;;;;;9.45;2.80;;;21.60;54.90;;;;;;4990169;28;20060;-58
2021/12/30 12:17:28;;;;;;;8.55;3.08;;;21.60;54.90;;;;;;5012057;28;20060;-58
2021/12/30 12:19:55;;;;;;;9.32;3.50;;;21.60;54.90;;;;;;5011745;28;20034;-58
2021/12/30 12:22:20;;;;;;;7.78;2.88;;;21.60;54.90;;;;;;5012616;28;20034;-58
2021/12/30 12:24:48;;;;;;;8.65;3.10;;;21.60;55.00;;;;;;5026792;28;20049;-58
2021/12/30 12:27:19;;;;;;;8.43;2.88;;;21.60;55.20;;;;;;5012908;28;20405;-59
2021/12/30 12:29:53;;;;;;;5.75;2.75;;;21.60;55.20;;;;;;5011673;28;20068;-57
2021/12/30 12:32:35;;;;;;;7.93;2.65;;;21.60;55.30;;;;;;5012901;28;20069;-59
2021/12/30 12:35:05;;;;;;;6.07;2.70;;;21.60;55.40;;;;;;5011262;28;20041;-57
2021/12/30 12:37:32;;;;;;;7.47;2.60;;;21.60;55.50;;;;;;5011425;28;20045;-56
2021/12/30 12:40:10;;;;;;;7.47;2.85;;;21.60;55.50;;;;;;5014196;28;20478;-58
2021/12/30 12:42:51;;;;;;;7.43;2.85;;;21.60;55.40;;;;;;5011574;28;20455;-58
2021/12/30 12:45:30;;;;;;;;;;;21.60;55.40;;;;;;5012877;28;20052;-58
2021/12/30 12:48:17;;;;;;;9.57;3.17;;;21.50;55.20;;;;;;5010969;28;19925;-60
2021/12/30 12:50:45;;;;;;;9.30;2.78;;;21.50;55.30;;;;;;5009106;28;20354;-57